Kongoussi Airport

Jump to: basic info | weather | comments

Related pages: nearby airports | nearby navaids | notams | map

Basic information (top)

Codes: DFCG
Location: lon 13.317000, lat -1.533000, elev 1,056 ft / 322 m msl
Status: small_airport

Weather (top)

Current conditions for Ouahigouya Airport 54nm (100km) WNW (rec'd 2009/09/21 17:00Z):

DFCC 211700Z 18004KT 9999 FEW020 31/20 Q1010

Airport forecast for Ouagadougou Airport 58nm (107km) S (rec'd 2014/10/01 18:00Z):

TAF DFFD 011700Z 0118/0224 18010KT 9999 SCT020 
      TEMPO 0118/0204 4000 TSRA SCT020 FEW033CB PROB30 
      TEMPO 0210/0218 VRB25KT 3000 SQ TSRA SCT020 SCT033CB

Latest comments (top)

No comments yet for Kongoussi Airport

More... (top)

See also NOTAMs and nearby airports and navaids, or visit the Kongoussi Airport page at the main OurAirports website..